• Join FlightAware (Why Join?)
  • Login
  • US Flag 
06:13PM EDT


 

Airport Tracker/Info


-or-


 

Live Flight TrackerFlight Track Log ✈ SWA104 ✈ 25-Jul-2013 ✈ KLAX - KSFO

Flight Track Log - Related Links

Times and Time Zones

All times are in EDT time to prevent confusion due to time zone crossing. See the SWA104 flight status page for this flight to view local times or setup timezone preferences in your user account.

Time Position Orientation Groundspeed Altitude Reporting Facility
EDT Latitude Longitude Course Direction KTS MPH feet Rate Location/Type
07:55PM 33.9500 -118.4500 287° West 153 176 1,600  Level Southern California TRACON
07:56PM 33.9386 -118.5147 258° West 202 232 4,100 2,580 Climbing Los Angeles Center
07:57PM 33.9286 -118.6100 263° West 264 304 7,300 3,360 Climbing Los Angeles Center
07:58PM 33.9203 -118.7069 264° West 289 333 11,100 3,000 Climbing Los Angeles Center
07:59PM 33.9181 -118.8114 269° West 318 366 13,600 2,760 Climbing Los Angeles Center
08:00PM 33.9442 -118.9256 285° West 355 409 16,900 3,000 Climbing Los Angeles Center
08:01PM 34.0878 -118.9511 287° West  Level FlightAware Approximate
08:01PM 33.9878 -119.0389 295° West 374 430 19,800  Level Los Angeles Center
08:02PM 34.0625 -119.1389 312° West 402 463 22,500 2,700 Climbing Los Angeles Center
08:04PM 34.1658 -119.2567 317° Northwest 423 487 25,500 2,580 Climbing Los Angeles Center
08:05PM 34.2733 -119.3806 316° Northwest 443 510 28,400 2,280 Climbing Los Angeles Center
08:06PM 34.3642 -119.4867 316° Northwest 453 521 30,700 2,280 Climbing Los Angeles Center
08:07PM 34.4542 -119.5906 316° Northwest 449 517 33,200 1,860 Climbing Los Angeles Center
08:08PM 34.5272 -119.6758 316° Northwest 455 524 34,600 1,320 Climbing Los Angeles Center
08:09PM 34.6522 -119.8178 317° Northwest 450 518 36,000 660 Climbing Los Angeles Center
08:10PM 34.7411 -119.9206 316° Northwest 442 509 36,000  Level Los Angeles Center
08:11PM 34.8300 -120.0219 317° Northwest 439 505 36,000  Level Los Angeles Center
08:12PM 34.8994 -120.1031 316° Northwest 444 511 36,000  Level Los Angeles Center
08:13PM 35.0039 -120.2253 316° Northwest 442 509 36,000  Level Los Angeles Center
08:14PM 35.1075 -120.3492 316° Northwest 439 505 36,000  Level Los Angeles Center
08:15PM 35.1947 -120.4519 316° Northwest 442 509 36,000  Level Los Angeles Center
08:16PM 35.2844 -120.5569 316° Northwest 449 517 36,000  Level Los Angeles Center
08:17PM 35.3700 -120.6619 315° West 444 511 36,000  Level Los Angeles Center
08:18PM 35.4700 -120.7539 323° Northwest 451 519 36,000  Level Los Angeles Center
08:19PM 35.5894 -120.8633 323° Northwest 448 516 36,000  Level Los Angeles Center
08:20PM 35.6833 -120.9514 323° Northwest 450 518 36,000  Level Los Angeles Center
08:21PM 35.7822 -121.0450 322° Northwest 448 516 36,000  Level Los Angeles Center
08:22PM 35.8817 -121.1378 323° Northwest 446 513 36,000 -960 Level Los Angeles Center
08:24PM 36.0381 -121.2883 322° Northwest 446 513 33,700 -1,920 Descending Oakland Center
08:25PM 36.1361 -121.3819 322° Northwest 446 513 31,300 -1,620 Descending Oakland Center
08:26PM 36.2353 -121.4769 322° Northwest 451 519 30,400 -960 Descending Oakland Center
08:27PM 36.3358 -121.5733 322° Northwest 454 522 29,400 -1,920 Descending Oakland Center
08:28PM 36.4364 -121.6703 322° Northwest 456 525 26,500 -3,000 Descending Oakland Center
08:29PM 36.5556 -121.7831 323° Northwest 447 514 23,300 -2,700 Descending Oakland Center
08:30PM 36.6447 -121.8703 322° Northwest 431 496 21,000 -2,100 Descending Oakland Center
08:31PM 36.7319 -121.9572 321° Northwest 400 460 19,100 -1,620 Descending Oakland Center
08:32PM 36.8311 -121.9858 347° North 361 415 17,700 -1,800 Descending Oakland Center
08:33PM 36.9208 -122.0106 348° North 333 383 15,500 -2,280 Descending Oakland Center
08:34PM 37.0083 -122.0331 348° North 321 369 13,100 -2,400 Descending Oakland Center
08:35PM 37.1094 -122.0603 348° North 310 357 10,600 -2,160 Descending Oakland Center
08:36PM 37.1922 -122.0811 349° North 304 350 8,700 -1,620 Descending Oakland Center
08:37PM 37.2722 -122.1025 348° North 297 342 7,400 -1,260 Descending Oakland Center
08:38PM 37.3500 -122.1222 349° North 289 333 6,200 -840 Descending Oakland Center
08:39PM 37.4186 -122.1408 348° North 262 302 5,700 -540 Descending Oakland Center
08:40PM 37.4833 -122.1667 342° North 207 238 5,100 -840 Descending Northern Cal TRACON
08:41PM 37.5333 -122.1833 345° North 194 223 4,100 -1,320 Descending Northern Cal TRACON
08:42PM 37.5667 -122.2333 310° West 180 207 2,700 -1,500 Descending Northern Cal TRACON
08:43PM 37.5833 -122.2833 293° West 174 200 1,200 -1,140 Descending Northern Cal TRACON
08:44PM 37.6000 -122.3333 293° West 135 155 500 -480 Descending Northern Cal TRACON
08:45PM 37.6228 -122.3822 300° West 158 182 200 -300 Descending Oakland Center
08:47PM 37.6167 -122.3667 North  Level FlightAware Approximate
08:54PM 37.6191 -122.3752 North  Level Estimated